Perales Airport

Airport
ICAO code: 
SKIB
IATA Code: 
IBE
Summary
ICAO Region: 
CARSAM
Territory: 
Location: 
Santa Rita, Tolima Department
Serving: 
Ibague
Elevation: 
2999 ft
Coordinates: 
Aerial View: 
4° 25' 26.688" N, 75° 8' 16.85" W
Metar
Observation
SKIB 030000Z 00000KT 9999 SCT030 24/20 Q1015 RMK A2998
Station
Ibague / Perales
Date/Time
2021-12-03 00:00:00
Wind direction
Wind speed
00 kts
Lowest cloud amount
scattered clouds
Temperature
24°C
Dew point
20°C
Humidity
78%
QNH
1015 hPa
Weather condition
n/a

Perales Airport is an airport serving the city of Ibagué in the Tolima Department of Colombia. The airport is 9 kilometres (5.6 mi) east of the city. There is high terrain north and west of the airport.

Climatology

Tropical rainforest climate (Köppen climate classification Af)

Runways

Designator Length Width Surface Rops
14/32 1800 30 ASP No/No
Airport map: 
Aerial View: 

SKYbrary Partners:

Safety knowledge contributed by: